Time;durP1;ratioP1;P1;durP2;ratioP2;P2;SDS_P1;SDS_P2;PMS_P1;PMS_P2;Temp;Humidity;BMP_temperature;BMP_pressure;BME280_temperature;BME280_humidity;BME280_pressure;Samples;Min_cycle;Max_cycle;Signal;HPM_P1;HPM_P2
2022/01/03 00:01:47;;;;;;;10.53;5.60;;;;;;;10.00;88.15;99493.72;1682088;84;27521;-79
2022/01/03 00:04:15;;;;;;;9.68;4.87;;;;;;;10.01;88.25;99490.51;1686680;84;26031;-79
2022/01/03 00:06:44;;;;;;;8.43;4.80;;;;;;;10.01;88.07;99478.47;1674140;84;25321;-80
2022/01/03 00:09:11;;;;;;;11.85;4.90;;;;;;;10.00;87.99;99475.50;1660570;85;26245;-79
2022/01/03 00:11:39;;;;;;;6.80;4.95;;;;;;;10.01;88.12;99473.95;1670789;85;25731;-79
2022/01/03 00:14:05;;;;;;;7.47;4.92;;;;;;;10.00;88.07;99466.97;1657475;85;27491;-80
2022/01/03 00:16:32;;;;;;;6.97;4.87;;;;;;;10.01;88.28;99474.45;1672848;85;25759;-80
2022/01/03 00:18:58;;;;;;;11.95;4.53;;;;;;;10.02;88.16;99474.27;1659027;85;26472;-80
2022/01/03 00:21:45;;;;;;;8.98;4.50;;;;;;;10.02;87.29;99464.91;1667152;84;26241;-79
2022/01/03 00:24:13;;;;;;;8.20;4.15;;;;;;;10.03;88.02;99477.73;1697263;82;25777;-79
2022/01/03 00:26:41;;;;;;;12.93;5.37;;;;;;;10.02;87.48;99470.25;1670281;84;28269;-80
2022/01/03 00:29:17;;;;;;;7.35;4.37;;;;;;;10.03;87.40;99465.70;1670715;84;25926;-80
2022/01/03 00:31:44;;;;;;;8.78;4.55;;;;;;;10.04;87.56;99470.03;1672411;84;25981;-79
2022/01/03 00:34:13;;;;;;;8.80;4.65;;;;;;;10.06;87.17;99478.67;1670699;84;26372;-79
2022/01/03 00:36:42;;;;;;;10.25;5.08;;;;;;;10.07;87.33;99472.30;1662949;85;25758;-80
2022/01/03 00:39:09;;;;;;;8.73;4.70;;;;;;;10.07;86.86;99479.78;1665840;84;27651;-80
2022/01/03 00:41:40;;;;;;;6.33;4.35;;;;;;;10.09;87.16;99478.27;1698826;83;25928;-79
2022/01/03 00:44:07;;;;;;;;;;;;;;;10.09;86.52;99474.25;1674826;84;25304;-79
2022/01/03 00:46:34;;;;;;;6.65;4.35;;;;;;;10.08;86.25;99476.60;1684097;84;26567;-79
2022/01/03 00:49:01;;;;;;;6.53;4.03;;;;;;;10.06;86.26;99462.11;1676683;84;25821;-80
2022/01/03 00:51:28;;;;;;;6.58;4.37;;;;;;;10.07;85.95;99464.27;1663588;84;27475;-79
2022/01/03 00:53:54;;;;;;;7.28;4.97;;;;;;;10.06;85.95;99454.59;1680526;84;25273;-79
2022/01/03 00:56:31;;;;;;;8.85;4.75;;;;;;;10.07;85.76;99455.70;1690821;84;25789;-80
2022/01/03 00:59:32;;;;;;;7.03;3.60;;;;;;;10.07;85.96;99456.25;1690555;84;25815;-80
2022/01/03 01:02:01;;;;;;;5.75;3.77;;;;;;;10.06;85.42;99463.45;1674755;85;26307;-80
2022/01/03 01:04:27;;;;;;;8.15;4.50;;;;;;;10.06;85.22;99453.25;1683897;84;27474;-79
2022/01/03 01:06:57;;;;;;;6.45;4.33;;;;;;;10.04;85.64;99456.14;1683525;84;25732;-80
2022/01/03 01:09:26;;;;;;;8.43;3.98;;;;;;;10.05;85.85;99451.63;1676314;85;25761;-79
2022/01/03 01:11:56;;;;;;;10.03;4.12;;;;;;;10.02;85.13;99452.86;1679522;84;26393;-80
2022/01/03 01:14:26;;;;;;;6.87;4.30;;;;;;;10.02;85.78;99453.38;1682395;84;25804;-80
2022/01/03 01:16:54;;;;;;;7.17;4.03;;;;;;;10.00;85.55;99453.59;1682646;84;28096;-80
2022/01/03 01:19:22;;;;;;;5.35;3.92;;;;;;;9.98;85.31;99439.61;1679940;84;25918;-79
2022/01/03 01:21:52;;;;;;;8.25;3.92;;;;;;;9.97;85.26;99448.66;1691123;84;25847;-80
2022/01/03 01:24:21;;;;;;;7.12;3.90;;;;;;;9.97;85.42;99447.82;1671336;84;25949;-80
2022/01/03 01:29:36;;;;;;;8.73;3.52;;;;;;;9.95;85.79;99452.56;1670147;84;27518;-79
2022/01/03 01:32:04;;;;;;;6.83;3.80;;;;;;;9.93;85.55;99451.95;1665936;85;25880;-79
2022/01/03 01:34:34;;;;;;;5.78;3.35;;;;;;;9.93;85.72;99450.61;1674217;84;26243;-79
2022/01/03 01:37:01;;;;;;;6.92;3.27;;;;;;;9.92;85.76;99445.77;1671311;84;25931;-79
2022/01/03 01:39:30;;;;;;;8.45;3.70;;;;;;;9.91;85.73;99447.33;1657464;84;26584;-79
2022/01/03 01:42:02;;;;;;;9.38;4.30;;;;;;;9.90;85.90;99453.73;1658005;85;28319;-79
2022/01/03 01:44:32;;;;;;;5.75;3.58;;;;;;;9.90;85.25;99441.69;1673404;84;25883;-79
2022/01/03 01:47:04;;;;;;;6.25;3.72;;;;;;;9.89;85.54;99449.40;1677701;84;25714;-80
2022/01/03 01:49:39;;;;;;;8.13;3.67;;;;;;;9.88;85.81;99452.58;1679482;84;25775;-79
2022/01/03 01:52:12;;;;;;;7.70;3.60;;;;;;;9.87;85.73;99446.94;1687570;84;25867;-79
2022/01/03 01:54:39;;;;;;;6.50;3.47;;;;;;;9.86;85.70;99446.62;1683921;84;27024;-79
2022/01/03 01:57:13;;;;;;;6.25;3.75;;;;;;;9.85;85.63;99446.84;1676175;84;26208;-79
2022/01/03 02:00:10;;;;;;;7.60;3.77;;;;;;;9.84;85.66;99449.19;1626197;87;25889;-80
2022/01/03 02:02:55;;;;;;;7.58;3.98;;;;;;;9.82;85.91;99445.40;1645703;86;25907;-79
2022/01/03 02:05:38;;;;;;;6.87;3.80;;;;;;;9.79;85.87;99440.48;1675339;84;25746;-80
2022/01/03 02:08:27;;;;;;;9.25;4.40;;;;;;;9.77;85.99;99429.69;1678676;84;27465;-79
2022/01/03 02:11:22;;;;;;;9.63;4.17;;;;;;;9.73;85.90;99439.96;1681092;84;26014;-79
2022/01/03 02:13:49;;;;;;;7.87;4.22;;;;;;;9.69;86.05;99433.90;1679406;84;25320;-79
2022/01/03 02:16:16;;;;;;;6.83;3.60;;;;;;;9.66;86.03;99439.69;1679559;84;26513;-79
2022/01/03 02:18:44;;;;;;;7.62;3.27;;;;;;;9.64;86.33;99429.20;1679520;84;25936;-80
2022/01/03 02:21:11;;;;;;;6.00;3.15;;;;;;;9.63;86.75;99432.90;1677524;84;27519;-79
2022/01/03 02:23:38;;;;;;;4.55;3.22;;;;;;;9.61;86.98;99436.80;1656272;84;25793;-79
2022/01/03 02:26:04;;;;;;;4.33;3.10;;;;;;;9.58;87.14;99429.22;1699825;83;25897;-79
2022/01/03 02:28:31;;;;;;;6.65;2.87;;;;;;;9.56;87.32;99429.95;1675110;84;26555;-79
2022/01/03 02:30:58;;;;;;;8.25;3.30;;;;;;;9.52;87.29;99428.19;1671815;84;25793;-80
2022/01/03 02:33:24;;;;;;;9.63;3.75;;;;;;;9.49;87.32;99418.44;1694649;83;28291;-79
2022/01/03 02:35:51;;;;;;;5.20;2.92;;;;;;;9.44;87.43;99424.40;1699418;83;25887;-79
2022/01/03 02:38:18;;;;;;;7.05;3.98;;;;;;;9.43;87.53;99433.97;1698197;83;25874;-79
2022/01/03 02:40:46;;;;;;;6.95;3.52;;;;;;;9.40;87.48;99437.87;1689416;84;26610;-79
2022/01/03 02:43:12;;;;;;;7.03;3.55;;;;;;;9.37;87.76;99428.92;1680261;84;26277;-80
2022/01/03 02:45:38;;;;;;;7.50;3.58;;;;;;;9.34;87.79;99427.48;1687520;84;28283;-80
2022/01/03 02:48:11;;;;;;;5.50;2.95;;;;;;;9.34;87.88;99428.81;1684397;84;25844;-79
2022/01/03 02:50:39;;;;;;;6.95;3.05;;;;;;;9.35;87.72;99422.96;1692625;84;25802;-79
2022/01/03 02:53:05;;;;;;;5.90;3.52;;;;;;;9.36;87.84;99426.47;1667665;84;26014;-79
2022/01/03 02:55:32;;;;;;;9.63;3.47;;;;;;;9.36;87.86;99415.27;1697369;83;26029;-79
2022/01/03 02:58:06;;;;;;;7.90;3.60;;;;;;;9.36;87.67;99417.94;1668628;84;28370;-79
2022/01/03 03:00:30;;;;;;;5.45;3.22;;;;;;;9.36;87.84;99413.11;1683772;84;25932;-79
2022/01/03 03:02:57;;;;;;;5.85;3.17;;;;;;;9.35;87.79;99404.25;1678411;84;25846;-80
2022/01/03 03:05:24;;;;;;;3.77;3.30;;;;;;;9.36;87.79;99403.75;1680622;84;25897;-79
2022/01/03 03:07:53;;;;;;;6.78;3.50;;;;;;;9.33;87.54;99405.81;1678882;84;26453;-79
2022/01/03 03:10:24;;;;;;;5.80;3.05;;;;;;;9.32;87.47;99409.50;1675820;84;27546;-80
2022/01/03 03:12:51;;;;;;;;;;;;;;;9.30;87.12;99406.21;1682923;84;25826;-79
2022/01/03 03:15:17;;;;;;;5.12;3.30;;;;;;;9.27;87.14;99401.30;1701834;83;25764;-80
2022/01/03 03:17:47;;;;;;;7.10;3.42;;;;;;;9.22;86.89;99410.44;1654082;84;25784;-80
2022/01/03 03:20:20;;;;;;;7.28;3.27;;;;;;;9.20;86.79;99398.31;1689945;84;25901;-80
2022/01/03 03:22:49;;;;;;;5.33;2.72;;;;;;;9.16;86.31;99400.59;1682845;84;27533;-79
2022/01/03 03:25:21;;;;;;;5.92;2.80;;;;;;;9.15;86.05;99400.27;1675206;84;25862;-79
2022/01/03 03:27:52;;;;;;;9.48;3.10;;;;;;;9.15;86.14;99402.94;1677484;84;25818;-79
2022/01/03 03:30:31;;;;;;;7.97;2.85;;;;;;;9.12;85.79;99397.19;1674454;84;26552;-80
2022/01/03 03:33:23;;;;;;;5.95;3.40;;;;;;;9.08;86.11;99403.47;1670009;84;26336;-79
2022/01/03 03:35:59;;;;;;;5.85;2.27;;;;;;;9.06;86.17;99402.86;1675689;84;27546;-80
2022/01/03 03:38:28;;;;;;;8.63;3.85;;;;;;;9.03;86.13;99396.58;1670711;84;25305;-79
2022/01/03 03:40:58;;;;;;;7.90;3.83;;;;;;;8.98;86.35;99394.23;1673145;84;26523;-79
2022/01/03 03:43:27;;;;;;;6.42;3.35;;;;;;;8.92;86.30;99392.36;1670472;84;25864;-79
2022/01/03 03:45:54;;;;;;;5.85;3.22;;;;;;;8.86;86.26;99393.18;1681299;84;26601;-80
2022/01/03 03:48:20;;;;;;;5.37;2.60;;;;;;;8.82;86.33;99386.11;1670064;84;27454;-79
2022/01/03 03:50:48;;;;;;;5.65;2.90;;;;;;;8.78;86.29;99380.04;1668225;84;26509;-79
2022/01/03 03:53:16;;;;;;;6.97;3.52;;;;;;;8.73;86.40;99383.83;1670346;84;26556;-79
2022/01/03 03:55:44;;;;;;;5.47;3.00;;;;;;;8.69;86.41;99382.09;1661632;85;26604;-79
2022/01/03 03:58:13;;;;;;;5.35;2.95;;;;;;;8.66;86.50;99378.48;1663257;85;25972;-79
2022/01/03 04:00:38;;;;;;;6.15;3.47;;;;;;;8.62;86.56;99379.91;1657232;85;28069;-79
2022/01/03 04:03:05;;;;;;;8.08;3.72;;;;;;;8.57;86.78;99384.23;1657599;85;25949;-79
2022/01/03 04:05:32;;;;;;;8.48;3.55;;;;;;;8.52;86.97;99377.66;1655920;85;25798;-79
2022/01/03 04:08:00;;;;;;;6.83;3.62;;;;;;;8.48;87.10;99369.75;1655761;85;25808;-79
2022/01/03 04:10:26;;;;;;;7.12;3.72;;;;;;;8.43;87.36;99375.37;1650221;85;25887;-79
2022/01/03 04:12:53;;;;;;;6.53;4.58;;;;;;;8.40;87.67;99382.47;1660266;85;26580;-79
2022/01/03 04:15:19;;;;;;;8.43;4.65;;;;;;;8.37;88.05;99379.69;1662641;85;26054;-80
2022/01/03 04:17:47;;;;;;;5.45;3.85;;;;;;;8.34;88.43;99370.73;1668100;84;25887;-79
2022/01/03 04:20:16;;;;;;;6.87;3.90;;;;;;;8.33;88.62;99373.11;1673187;84;26068;-79
2022/01/03 04:22:43;;;;;;;5.97;4.47;;;;;;;8.30;89.11;99377.50;1668402;84;25405;-79
2022/01/03 04:25:10;;;;;;;9.38;4.83;;;;;;;8.30;89.35;99375.34;1674552;84;28258;-80
2022/01/03 04:27:37;;;;;;;10.35;4.65;;;;;;;8.28;89.50;99371.55;1690921;84;26347;-80
2022/01/03 04:30:06;;;;;;;10.82;4.80;;;;;;;8.28;89.49;99376.05;1695056;84;25660;-79
2022/01/03 04:32:32;;;;;;;10.25;4.53;;;;;;;8.27;89.52;99376.59;1686566;84;25944;-79
2022/01/03 04:34:58;;;;;;;9.18;4.85;;;;;;;8.25;89.62;99374.64;1683802;84;26471;-80
2022/01/03 04:37:25;;;;;;;6.92;5.10;;;;;;;8.25;89.80;99381.78;1683457;84;27559;-79
2022/01/03 04:39:51;;;;;;;8.55;4.80;;;;;;;8.25;89.79;99377.30;1675961;84;25887;-79
2022/01/03 04:42:19;;;;;;;9.48;5.28;;;;;;;8.23;89.97;99367.28;1676657;84;25826;-79
2022/01/03 04:44:46;;;;;;;11.25;6.17;;;;;;;8.23;89.98;99373.95;1682754;84;26169;-79
2022/01/03 04:47:12;;;;;;;9.88;5.60;;;;;;;8.23;89.98;99371.29;1685110;84;25336;-79
2022/01/03 04:49:38;;;;;;;8.75;5.53;;;;;;;8.23;89.99;99371.83;1684914;84;27468;-80
2022/01/03 04:52:05;;;;;;;6.22;4.35;;;;;;;8.23;90.01;99374.48;1682448;84;26020;-78
2022/01/03 04:54:32;;;;;;;10.50;4.72;;;;;;;8.22;90.06;99368.33;1676036;84;26503;-79
2022/01/03 04:56:59;;;;;;;8.40;5.05;;;;;;;8.21;90.26;99376.00;1678817;84;26530;-79
2022/01/03 04:59:26;;;;;;;8.73;5.08;;;;;;;8.21;90.31;99373.88;1676100;84;26469;-79
2022/01/03 05:01:55;;;;;;;6.72;5.00;;;;;;;8.21;90.30;99376.54;1684236;84;27495;-79
2022/01/03 05:04:22;;;;;;;9.03;5.30;;;;;;;8.19;90.40;99382.59;1685163;84;25787;-80
2022/01/03 05:06:48;;;;;;;8.48;5.30;;;;;;;8.17;90.44;99377.44;1682915;84;25973;-79
2022/01/03 05:09:14;;;;;;;8.10;4.72;;;;;;;8.17;90.55;99368.09;1683072;84;26709;-79
2022/01/03 05:11:42;;;;;;;9.78;5.50;;;;;;;8.16;90.60;99373.14;1682668;84;26533;-79
2022/01/03 05:14:08;;;;;;;11.18;5.42;;;;;;;8.15;90.58;99374.14;1679944;84;27475;-79
2022/01/03 05:16:34;;;;;;;10.15;5.25;;;;;;;8.15;90.66;99387.98;1682400;84;25863;-79
2022/01/03 05:19:01;;;;;;;9.73;5.28;;;;;;;8.15;90.71;99382.14;1678124;84;26451;-79
2022/01/03 05:21:29;;;;;;;12.35;5.47;;;;;;;8.15;90.72;99383.48;1682951;84;26574;-79
2022/01/03 05:23:55;;;;;;;8.30;4.95;;;;;;;8.14;90.59;99371.19;1682014;84;25837;-79
2022/01/03 05:26:22;;;;;;;7.35;4.83;;;;;;;8.13;90.66;99370.03;1678142;84;27488;-79
2022/01/03 05:28:48;;;;;;;10.25;5.70;;;;;;;8.13;90.61;99377.53;1682457;84;25904;-79
2022/01/03 05:31:15;;;;;;;8.35;5.30;;;;;;;8.12;90.54;99377.23;1686739;84;26487;-79
2022/01/03 05:33:42;;;;;;;8.73;5.50;;;;;;;8.11;90.64;99379.58;1679613;84;25851;-79
2022/01/03 05:36:08;;;;;;;9.80;4.90;;;;;;;8.12;90.61;99389.23;1692209;84;25297;-79
2022/01/03 05:38:35;;;;;;;9.25;5.92;;;;;;;8.10;90.45;99387.28;1675887;85;28465;-79
2022/01/03 05:41:02;;;;;;;11.18;5.40;;;;;;;8.09;90.61;99383.45;1681277;84;25948;-79
2022/01/03 05:43:29;;;;;;;8.23;5.47;;;;;;;8.07;90.61;99382.33;1687413;84;25850;-80
2022/01/03 05:45:56;;;;;;;8.23;5.55;;;;;;;8.06;90.53;99378.00;1692441;84;25896;-79
2022/01/03 05:48:23;;;;;;;10.20;5.53;;;;;;;8.06;90.53;99375.87;1683256;84;25776;-79
2022/01/03 05:50:49;;;;;;;8.78;5.20;;;;;;;8.05;90.47;99383.05;1685947;84;27512;-80
2022/01/03 05:53:16;;;;;;;9.65;6.17;;;;;;;8.06;90.54;99382.55;1676984;84;26467;-80
2022/01/03 05:55:42;;;;;;;7.85;5.22;;;;;;;8.04;90.69;99382.72;1675323;85;25874;-80
2022/01/03 05:58:09;;;;;;;9.18;5.97;;;;;;;8.04;90.60;99378.72;1686442;84;25854;-79
2022/01/03 06:00:35;;;;;;;8.23;4.92;;;;;;;8.04;90.65;99380.59;1682348;84;25894;-80
2022/01/03 06:03:02;;;;;;;9.65;5.28;;;;;;;8.05;90.67;99375.05;1685085;84;27074;-80
2022/01/03 06:05:40;;;;;;;11.03;5.92;;;;;;;8.04;90.61;99378.72;1686339;84;25766;-80
2022/01/03 06:07:59;;;;;;;10.23;5.85;;;;;;;8.06;90.64;99379.88;1675667;84;25855;-80
2022/01/03 06:10:28;;;;;;;8.03;5.37;;;;;;;8.05;90.65;99375.55;1683177;84;25934;-80
2022/01/03 06:12:55;;;;;;;8.05;5.50;;;;;;;8.05;90.71;99380.88;1683337;84;26529;-80
2022/01/03 06:15:23;;;;;;;13.13;6.45;;;;;;;8.04;90.74;99373.92;1687780;84;27446;-80
2022/01/03 06:17:51;;;;;;;10.75;6.20;;;;;;;8.04;90.81;99372.05;1683568;84;26447;-80
2022/01/03 06:20:17;;;;;;;9.30;5.75;;;;;;;8.04;90.83;99375.26;1683598;84;26647;-80
2022/01/03 06:22:44;;;;;;;13.80;6.28;;;;;;;8.05;90.84;99373.71;1690235;84;25841;-79
2022/01/03 06:25:11;;;;;;;9.68;5.50;;;;;;;8.04;90.84;99370.72;1682890;84;25929;-80
2022/01/03 06:27:39;;;;;;;9.08;6.22;;;;;;;8.04;90.97;99372.59;1678953;84;27459;-80
2022/01/03 06:30:08;;;;;;;12.35;7.58;;;;;;;8.06;91.00;99381.21;1678522;84;26039;-80
2022/01/03 06:32:36;;;;;;;11.88;6.83;;;;;;;8.07;91.04;99377.50;1674331;85;25929;-80
2022/01/03 06:35:04;;;;;;;8.98;6.08;;;;;;;8.06;91.12;99379.34;1674091;84;26596;-80
2022/01/03 06:37:32;;;;;;;8.13;6.60;;;;;;;8.08;91.11;99380.50;1667963;84;26034;-80
2022/01/03 06:40:00;;;;;;;11.22;6.90;;;;;;;8.08;91.07;99387.16;1681475;84;28344;-80
2022/01/03 06:42:27;;;;;;;11.33;6.62;;;;;;;8.08;91.08;99383.16;1681904;84;25806;-80
2022/01/03 06:44:53;;;;;;;11.97;7.25;;;;;;;8.07;91.14;99381.50;1678959;84;25870;-79
2022/01/03 06:47:21;;;;;;;15.55;6.97;;;;;;;8.07;91.11;99383.66;1687202;84;25773;-80
2022/01/03 06:49:48;;;;;;;10.88;6.58;;;;;;;8.08;91.12;99385.33;1681267;84;25798;-80
2022/01/03 06:52:14;;;;;;;11.57;6.00;;;;;;;8.06;91.13;99382.55;1668392;84;28439;-80
2022/01/03 06:54:42;;;;;;;12.33;7.22;;;;;;;8.06;91.13;99394.55;1681551;84;25942;-79
2022/01/03 06:57:10;;;;;;;13.55;6.75;;;;;;;8.07;91.14;99397.51;1684135;84;26014;-80
2022/01/03 06:59:38;;;;;;;8.35;5.83;;;;;;;8.06;91.13;99398.01;1686498;84;26617;-80
2022/01/03 07:02:05;;;;;;;9.00;6.17;;;;;;;8.07;91.15;99398.84;1675443;84;26032;-80
2022/01/03 07:04:32;;;;;;;9.58;6.37;;;;;;;8.07;91.16;99402.34;1641319;86;28347;-80
2022/01/03 07:06:59;;;;;;;8.15;6.10;;;;;;;8.07;91.21;99405.50;1654491;85;25959;-79
2022/01/03 07:09:25;;;;;;;11.00;6.30;;;;;;;8.05;91.17;99400.38;1663425;85;25899;-80
2022/01/03 07:11:51;;;;;;;10.13;6.08;;;;;;;8.04;91.29;99401.92;1659868;85;26743;-80
2022/01/03 07:19:40;;;;;;;11.55;6.30;;;;;;;8.02;91.49;99410.10;1639702;86;26066;-79
2022/01/03 07:22:09;;;;;;;9.80;6.28;;;;;;;8.04;91.57;99407.25;1655495;85;25762;-80
2022/01/03 07:24:37;;;;;;;12.03;6.90;;;;;;;8.06;91.64;99406.55;1678460;84;26935;-80
2022/01/03 07:27:08;;;;;;;11.20;6.80;;;;;;;8.08;91.77;99408.50;1682824;84;26363;-79
2022/01/03 07:29:35;;;;;;;;;;;;;;;8.08;91.80;99412.00;1686256;84;28003;-80
2022/01/03 07:32:02;;;;;;;9.85;5.87;;;;;;;8.09;91.90;99406.95;1675678;85;25762;-79
2022/01/03 07:34:28;;;;;;;14.05;7.20;;;;;;;8.11;92.04;99405.41;1681365;84;25985;-79
2022/01/03 07:36:55;;;;;;;13.03;7.97;;;;;;;8.13;91.99;99404.70;1679307;84;26079;-79
2022/01/03 07:39:21;;;;;;;11.90;7.65;;;;;;;8.16;91.99;99409.14;1680031;84;26302;-80
2022/01/03 07:41:47;;;;;;;13.93;7.95;;;;;;;8.18;92.06;99411.10;1682275;84;27482;-80
2022/01/03 07:44:14;;;;;;;13.93;7.62;;;;;;;8.23;92.06;99410.50;1680022;84;26341;-80
2022/01/03 07:46:40;;;;;;;12.30;7.37;;;;;;;8.25;92.05;99411.98;1677889;84;26650;-80
2022/01/03 07:49:06;;;;;;;11.80;8.25;;;;;;;8.27;91.99;99413.94;1689788;84;26542;-80
2022/01/03 07:51:32;;;;;;;10.43;6.85;;;;;;;8.28;92.01;99405.40;1683566;84;25872;-80
2022/01/03 07:53:59;;;;;;;12.58;7.75;;;;;;;8.28;92.06;99407.56;1679816;84;27495;-79
2022/01/03 07:56:25;;;;;;;13.55;7.97;;;;;;;8.31;92.16;99409.02;1679432;84;25814;-80
2022/01/03 07:58:52;;;;;;;13.25;9.73;;;;;;;8.33;92.14;99397.13;1687223;84;25850;-79
2022/01/03 08:01:18;;;;;;;18.10;11.55;;;;;;;8.34;92.14;99403.29;1696416;83;25772;-80
2022/01/03 08:03:44;;;;;;;17.30;10.55;;;;;;;8.35;92.14;99407.59;1678182;84;25964;-80
2022/01/03 08:06:11;;;;;;;19.42;12.98;;;;;;;8.37;92.21;99401.03;1680246;84;27638;-79
2022/01/03 08:08:38;;;;;;;41.28;23.12;;;;;;;8.38;92.17;99398.66;1676879;84;26101;-80
2022/01/03 08:11:05;;;;;;;71.42;40.10;;;;;;;8.39;92.20;99398.98;1688305;84;25734;-80
2022/01/03 08:13:31;;;;;;;42.03;28.98;;;;;;;8.42;92.14;99401.76;1684028;84;25849;-80
2022/01/03 08:15:58;;;;;;;39.95;31.40;;;;;;;8.42;92.15;99393.25;1680371;84;25774;-80
2022/01/03 08:18:24;;;;;;;40.88;29.02;;;;;;;8.42;92.17;99397.25;1697240;83;27541;-80
2022/01/03 08:20:53;;;;;;;25.27;19.05;;;;;;;8.43;92.20;99393.55;1681059;84;25949;-80
2022/01/03 08:23:18;;;;;;;16.67;11.85;;;;;;;8.44;92.27;99397.05;1679643;84;26020;-80
2022/01/03 08:25:44;;;;;;;14.33;8.38;;;;;;;8.43;92.44;99393.55;1677062;84;26386;-80
2022/01/03 08:28:11;;;;;;;13.60;8.25;;;;;;;8.42;92.47;99394.59;1680085;84;25786;-80
2022/01/03 08:30:37;;;;;;;13.00;7.20;;;;;;;8.43;92.68;99392.21;1678700;84;27454;-80
2022/01/03 08:33:04;;;;;;;9.20;6.97;;;;;;;8.43;92.78;99394.88;1678343;84;25755;-80
2022/01/03 08:35:32;;;;;;;11.78;8.38;;;;;;;8.45;92.84;99394.16;1677977;84;25827;-80
2022/01/03 08:37:59;;;;;;;9.40;6.20;;;;;;;8.44;92.88;99393.88;1678256;84;25821;-80
2022/01/03 08:40:27;;;;;;;10.75;6.83;;;;;;;8.46;93.04;99389.15;1680235;84;25747;-79
2022/01/03 08:42:53;;;;;;;9.18;6.40;;;;;;;8.46;93.25;99391.81;1678614;84;27463;-80
2022/01/03 08:45:20;;;;;;;10.90;7.08;;;;;;;8.47;93.32;99394.78;1681583;84;25966;-79
2022/01/03 08:47:46;;;;;;;11.68;7.37;;;;;;;8.47;93.46;99396.12;1676013;84;25763;-79
2022/01/03 08:50:15;;;;;;;8.58;6.75;;;;;;;8.47;93.59;99395.28;1687615;84;25855;-80
2022/01/03 08:52:42;;;;;;;11.85;7.17;;;;;;;8.48;93.65;99395.11;1678072;84;26394;-80
2022/01/03 08:55:08;;;;;;;13.62;6.90;;;;;;;8.47;94.10;99395.28;1679643;84;28363;-80
2022/01/03 08:57:34;;;;;;;13.68;6.95;;;;;;;8.43;94.72;99392.72;1679217;84;25913;-80
2022/01/03 09:00:01;;;;;;;8.90;6.30;;;;;;;8.37;95.12;99398.86;1682063;84;25855;-80
2022/01/03 09:02:27;;;;;;;10.88;6.92;;;;;;;8.34;95.23;99396.08;1677800;84;25833;-79
2022/01/03 09:04:53;;;;;;;12.98;6.78;;;;;;;8.32;95.28;99403.97;1678280;84;26175;-80
2022/01/03 09:07:19;;;;;;;10.10;6.45;;;;;;;8.30;95.60;99395.34;1682221;84;27515;-80
2022/01/03 09:09:45;;;;;;;14.00;10.63;;;;;;;8.30;95.51;99396.68;1681919;84;25817;-80
2022/01/03 09:12:12;;;;;;;11.55;7.05;;;;;;;8.30;95.78;99398.84;1690253;84;25898;-80
2022/01/03 09:14:38;;;;;;;11.03;7.00;;;;;;;8.27;96.24;99394.44;1659934;84;26519;-80
2022/01/03 09:17:04;;;;;;;8.73;5.50;;;;;;;8.25;96.24;99399.98;1662010;85;25929;-80
2022/01/03 09:19:31;;;;;;;8.30;6.28;;;;;;;8.24;96.52;99396.12;1684433;84;27185;-80
2022/01/03 09:22:11;;;;;;;8.83;6.83;;;;;;;8.22;96.35;99395.51;1659493;85;26017;-79
2022/01/03 09:24:42;;;;;;;7.40;5.35;;;;;;;8.20;96.58;99393.55;1659336;85;25899;-80
2022/01/03 09:29:39;;;;;;;9.48;6.83;;;;;;;8.16;96.60;99391.81;1653185;86;25937;-79
2022/01/03 09:32:07;;;;;;;10.48;6.60;;;;;;;8.15;96.90;99398.66;1659702;84;27648;-79
2022/01/03 09:34:34;;;;;;;9.50;5.87;;;;;;;8.14;97.14;99393.02;1653700;85;25852;-79
2022/01/03 09:37:02;;;;;;;9.68;4.90;;;;;;;8.12;96.90;99396.41;1659817;85;25722;-80
2022/01/03 09:39:29;;;;;;;8.30;5.05;;;;;;;8.08;96.98;99396.50;1651123;86;25928;-80
2022/01/03 09:42:06;;;;;;;6.50;4.47;;;;;;;8.08;97.21;99396.50;1661976;85;25929;-80
2022/01/03 09:44:34;;;;;;;8.45;4.28;;;;;;;8.04;97.09;99401.39;1653627;86;28353;-79
2022/01/03 09:47:05;;;;;;;6.08;3.87;;;;;;;8.04;97.09;99393.92;1657135;85;25937;-79
2022/01/03 09:49:35;;;;;;;4.22;3.40;;;;;;;8.03;97.49;99398.93;1654600;86;25896;-79
2022/01/03 09:52:05;;;;;;;6.92;3.65;;;;;;;7.99;97.31;99399.84;1652926;86;25826;-80
2022/01/03 09:54:32;;;;;;;5.25;3.83;;;;;;;7.97;97.33;99397.06;1655831;86;25786;-79
2022/01/03 09:57:04;;;;;;;5.55;3.20;;;;;;;7.96;97.32;99395.41;1665864;84;27556;-79
2022/01/03 09:59:32;;;;;;;9.93;3.62;;;;;;;7.95;97.24;99393.27;1668759;84;25811;-80
2022/01/03 10:02:00;;;;;;;8.00;4.65;;;;;;;7.94;97.36;99387.61;1652221;86;26181;-80
2022/01/03 10:04:26;;;;;;;55.55;28.17;;;;;;;7.95;97.34;99387.11;1661610;85;25882;-80
2022/01/03 10:06:53;;;;;;;16.67;10.72;;;;;;;7.93;97.18;99383.83;1683156;84;25955;-80
2022/01/03 10:09:20;;;;;;;8.50;7.33;;;;;;;7.94;97.09;99380.12;1660280;85;27460;-79
2022/01/03 10:11:47;;;;;;;6.25;5.12;;;;;;;7.94;96.95;99380.12;1649904;86;26632;-80
2022/01/03 10:14:13;;;;;;;4.85;3.62;;;;;;;7.95;96.80;99379.11;1659504;85;26580;-79
2022/01/03 10:16:45;;;;;;;7.33;4.30;;;;;;;7.92;96.58;99381.66;1684844;84;26444;-80
2022/01/03 10:19:11;;;;;;;;;;;;;;;7.90;96.54;99381.55;1663031;85;26196;-80
2022/01/03 10:21:45;;;;;;;5.78;3.80;;;;;;;7.89;96.42;99379.38;1659504;85;27336;-80
2022/01/03 10:24:15;;;;;;;5.75;3.55;;;;;;;7.89;96.63;99374.58;1680457;84;25833;-80
2022/01/03 10:26:43;;;;;;;7.47;4.80;;;;;;;7.91;96.64;99377.87;1685574;83;25861;-79
2022/01/03 10:29:19;;;;;;;7.72;4.22;;;;;;;7.91;96.58;99376.03;1689880;83;25899;-80
2022/01/03 10:31:49;;;;;;;6.97;4.62;;;;;;;7.94;96.71;99374.78;1689498;84;25899;-80
2022/01/03 10:34:19;;;;;;;7.17;5.08;;;;;;;7.94;96.74;99377.45;1685470;84;28302;-79
2022/01/03 10:36:47;;;;;;;6.95;4.67;;;;;;;7.94;96.75;99377.45;1672529;84;26582;-80
2022/01/03 10:39:27;;;;;;;7.60;4.97;;;;;;;7.94;96.73;99378.28;1677322;85;25542;-80
2022/01/03 10:42:13;;;;;;;9.03;4.35;;;;;;;7.96;96.79;99379.41;1680493;85;26548;-80
2022/01/03 10:44:41;;;;;;;6.47;4.47;;;;;;;7.97;96.88;99384.56;1670426;85;26651;-80
2022/01/03 10:47:16;;;;;;;7.55;4.58;;;;;;;8.00;96.95;99378.81;1674021;85;27477;-80
2022/01/03 10:49:46;;;;;;;24.15;11.97;;;;;;;8.03;96.99;99382.93;1672926;85;25895;-79
2022/01/03 10:52:19;;;;;;;41.80;22.00;;;;;;;8.03;97.11;99377.09;1685490;84;25824;-79
2022/01/03 10:55:20;;;;;;;19.77;13.05;;;;;;;8.02;97.09;99375.44;1679980;84;25882;-79
2022/01/03 10:57:59;;;;;;;17.52;13.38;;;;;;;8.05;97.32;99374.22;1689725;83;25763;-80
2022/01/03 11:00:37;;;;;;;16.30;13.13;;;;;;;8.06;97.42;99369.20;1665596;85;28759;-80
2022/01/03 11:03:42;;;;;;;10.43;7.40;;;;;;;8.07;97.60;99365.00;1668302;85;25974;-80
2022/01/03 11:06:13;;;;;;;11.48;6.90;;;;;;;8.12;97.71;99365.73;1691587;83;26482;-80
2022/01/03 11:11:19;;;;;;;12.07;7.15;;;;;;;8.19;98.01;99362.05;1694689;83;25803;-80
2022/01/03 11:13:49;;;;;;;12.58;7.35;;;;;;;8.24;98.04;99361.45;1685496;83;27518;-80
2022/01/03 11:16:15;;;;;;;13.08;7.00;;;;;;;8.25;98.05;99363.97;1689311;83;25910;-79
2022/01/03 11:18:49;;;;;;;10.63;6.90;;;;;;;8.27;98.03;99361.09;1685893;83;25533;-80
2022/01/03 11:21:21;;;;;;;11.65;7.50;;;;;;;8.28;97.97;99364.88;1694834;83;26582;-79
2022/01/03 11:24:02;;;;;;;14.28;8.88;;;;;;;8.31;98.05;99359.16;1689667;83;25585;-80
2022/01/03 11:26:33;;;;;;;29.02;15.55;;;;;;;8.32;98.00;99359.95;1691631;83;27477;-79
2022/01/03 11:29:01;;;;;;;30.62;22.17;;;;;;;8.33;98.01;99357.61;1674356;84;25925;-80
2022/01/03 11:31:33;;;;;;;25.45;19.25;;;;;;;8.32;97.91;99355.95;1699479;83;25725;-79
2022/01/03 11:34:01;;;;;;;17.35;12.23;;;;;;;8.31;97.98;99355.16;1674465;84;25763;-79
2022/01/03 11:36:27;;;;;;;17.27;13.48;;;;;;;8.32;98.01;99355.95;1700955;83;25804;-79
2022/01/03 11:38:56;;;;;;;12.93;9.88;;;;;;;8.32;98.14;99358.62;1680595;84;28203;-79
2022/01/03 11:41:24;;;;;;;16.07;11.15;;;;;;;8.33;98.13;99362.44;1666125;84;25754;-79
2022/01/03 11:43:51;;;;;;;13.75;8.93;;;;;;;8.33;98.10;99354.44;1678323;84;25872;-79
2022/01/03 11:46:17;;;;;;;12.30;8.30;;;;;;;8.36;98.23;99355.34;1689755;84;26558;-79
2022/01/03 11:48:46;;;;;;;12.43;8.43;;;;;;;8.38;98.21;99350.63;1682839;84;25931;-79
2022/01/03 11:51:14;;;;;;;13.60;7.95;;;;;;;8.39;98.14;99362.95;1703307;83;27702;-80
2022/01/03 11:53:47;;;;;;;11.08;7.42;;;;;;;8.40;98.11;99358.45;1667615;84;25896;-79
2022/01/03 11:56:18;;;;;;;12.45;6.15;;;;;;;8.40;98.29;99357.91;1667737;84;25593;-80
2022/01/03 12:04:15;;;;;;;12.85;8.33;;;;;;;8.44;98.39;99364.52;1679461;84;26973;-79
2022/01/03 12:06:44;;;;;;;10.25;6.85;;;;;;;8.44;98.37;99371.19;1682038;84;25802;-79